Time;durP1;ratioP1;P1;durP2;ratioP2;P2;SDS_P1;SDS_P2;PMS_P1;PMS_P2;Temp;Humidity;BMP_temperature;BMP_pressure;BME280_temperature;BME280_humidity;BME280_pressure;Samples;Min_cycle;Max_cycle;Signal;HPM_P1;HPM_P2
2021/03/21 00:03:09;;;;;;;14.30;8.97;;;;;;;-6.70;71.88;97072.96;1868559;74;22963;-77
2021/03/21 00:05:38;;;;;;;18.53;9.17;;;;;;;-6.73;71.96;97071.99;1835485;77;21151;-77
2021/03/21 00:08:18;;;;;;;27.70;13.23;;;;;;;-6.79;71.98;97070.03;1832409;76;21472;-77
2021/03/21 00:10:55;;;;;;;30.47;12.40;;;;;;;-6.82;71.89;97064.72;1829686;78;21099;-79
2021/03/21 00:13:25;;;;;;;25.75;11.73;;;;;;;-6.80;71.75;97061.98;1811625;76;21443;-79
2021/03/21 00:15:54;;;;;;;28.38;12.40;;;;;;;-6.78;71.78;97053.59;1815392;76;21495;-79
2021/03/21 00:18:26;;;;;;;25.10;13.43;;;;;;;-6.82;71.94;97043.30;1818739;76;21136;-79
2021/03/21 00:20:54;;;;;;;27.60;12.67;;;;;;;-6.90;71.93;97035.88;1830497;76;21073;-78
2021/03/21 00:23:21;;;;;;;18.83;10.00;;;;;;;-6.99;72.03;97040.69;1832071;76;21098;-78
2021/03/21 00:25:50;;;;;;;30.10;12.70;;;;;;;-7.03;72.17;97036.82;1815421;78;21075;-78
2021/03/21 00:28:21;;;;;;;29.00;14.87;;;;;;;-7.04;72.42;97029.22;1818238;76;21104;-78
2021/03/21 00:30:51;;;;;;;32.17;13.30;;;;;;;-7.04;72.28;97030.02;1837678;76;21090;-78
2021/03/21 00:33:22;;;;;;;29.20;13.62;;;;;;;-7.07;72.26;97032.92;1834407;76;21112;-78
2021/03/21 00:35:52;;;;;;;24.23;10.37;;;;;;;-7.10;72.24;97028.09;1826645;76;21100;-78
2021/03/21 00:38:36;;;;;;;25.77;14.85;;;;;;;-7.12;72.42;97025.35;1825670;78;21443;-79
2021/03/21 00:41:06;;;;;;;29.57;14.53;;;;;;;-7.13;72.43;97014.72;1821829;76;21150;-79
2021/03/21 00:43:34;;;;;;;29.65;13.30;;;;;;;-7.08;72.37;97012.47;1825911;78;21103;-79
2021/03/21 00:46:02;;;;;;;30.00;15.70;;;;;;;-7.04;72.34;97003.45;1830480;76;21462;-79
2021/03/21 00:48:34;;;;;;;29.17;14.83;;;;;;;-7.01;72.15;96999.30;1823273;76;21094;-79
2021/03/21 00:51:03;;;;;;;18.97;9.77;;;;;;;-7.00;72.17;96991.89;1815146;76;21476;-79
2021/03/21 00:53:31;;;;;;;28.50;12.97;;;;;;;-7.03;72.37;96989.16;1802283;76;21069;-79
2021/03/21 00:55:59;;;;;;;32.90;14.57;;;;;;;-7.06;72.45;96979.62;1831930;76;21114;-79
2021/03/21 00:58:27;;;;;;;32.10;13.53;;;;;;;-7.08;72.45;96981.07;1844799;77;21085;-79
2021/03/21 01:00:59;;;;;;;15.47;8.10;;;;;;;-7.09;72.59;96972.22;1827378;76;21285;-78
2021/03/21 01:03:27;;;;;;;31.70;14.40;;;;;;;-7.05;72.94;96966.58;1814167;78;21419;-79
2021/03/21 01:05:59;;;;;;;30.53;15.43;;;;;;;-6.99;72.74;96969.83;1831466;77;21250;-78
2021/03/21 01:08:34;;;;;;;23.00;14.00;;;;;;;-6.97;72.68;96969.66;1824717;77;21115;-79
2021/03/21 01:11:06;;;;;;;31.30;14.50;;;;;;;-6.97;72.58;96969.66;1826777;76;21103;-79
2021/03/21 01:13:35;;;;;;;36.57;16.00;;;;;;;-6.96;72.58;96968.21;1829207;78;21075;-79
2021/03/21 01:16:07;;;;;;;33.80;16.73;;;;;;;-6.96;72.53;96954.52;1808980;78;21231;-79
2021/03/21 01:18:35;;;;;;;25.20;13.17;;;;;;;-6.92;72.65;96956.61;1834927;76;21123;-79
2021/03/21 01:21:05;;;;;;;35.40;15.50;;;;;;;-6.88;72.61;96953.25;1828091;78;21126;-79
2021/03/21 01:23:33;;;;;;;29.10;14.93;;;;;;;-6.84;72.67;96948.58;1824814;76;21250;-79
2021/03/21 01:26:00;;;;;;;29.57;14.17;;;;;;;-6.83;72.64;96949.70;1842923;76;21108;-79
2021/03/21 01:28:36;;;;;;;22.90;9.67;;;;;;;-6.84;72.49;96940.36;1811870;76;21250;-79
2021/03/21 01:31:08;;;;;;;21.77;11.73;;;;;;;-6.86;72.61;96938.43;1805673;76;21136;-79
2021/03/21 01:33:37;;;;;;;29.83;14.80;;;;;;;-6.91;72.67;96932.93;1758102;79;21448;-79
2021/03/21 01:36:09;;;;;;;32.20;14.47;;;;;;;-6.92;72.78;96931.32;1795621;78;21610;-79
2021/03/21 01:38:36;;;;;;;26.70;10.83;;;;;;;-6.92;72.60;96925.69;1821303;76;21565;-79
2021/03/21 01:41:08;;;;;;;27.80;14.10;;;;;;;-6.93;72.66;96922.78;1828357;76;21136;-79
2021/03/21 01:43:41;;;;;;;32.27;15.83;;;;;;;-6.94;72.50;96921.66;1823357;77;21164;-79
2021/03/21 01:46:15;;;;;;;31.13;14.90;;;;;;;-6.96;72.40;96919.73;1813421;76;21212;-78
2021/03/21 01:48:53;;;;;;;29.83;14.70;;;;;;;-6.96;72.32;96915.38;1827714;77;21090;-79
2021/03/21 01:51:31;;;;;;;32.20;15.67;;;;;;;-6.97;72.43;96911.69;1830659;76;21231;-79
2021/03/21 01:54:03;;;;;;;30.07;15.33;;;;;;;-7.00;72.26;96913.30;1825233;76;21605;-78
2021/03/21 01:56:33;;;;;;;30.90;13.20;;;;;;;-7.00;72.15;96913.30;1816063;76;21060;-78
2021/03/21 01:59:12;;;;;;;31.27;16.07;;;;;;;-6.97;72.11;96912.97;1830892;76;21589;-78
2021/03/21 02:01:39;;;;;;;27.40;14.03;;;;;;;-6.94;72.05;96917.80;1833706;76;21533;-78
2021/03/21 02:04:07;;;;;;;31.00;14.00;;;;;;;-6.96;72.04;96903.79;1821980;78;21102;-78
2021/03/21 02:06:40;;;;;;;33.50;15.43;;;;;;;-6.94;71.95;96901.05;1819088;76;21241;-78
2021/03/21 02:09:35;;;;;;;34.03;13.47;;;;;;;-6.92;71.85;96900.40;1834568;76;21095;-78
2021/03/21 02:12:35;;;;;;;30.50;15.13;;;;;;;-7.07;71.88;96895.09;1816160;78;21499;-79
2021/03/21 02:15:25;;;;;;;39.25;17.00;;;;;;;-7.23;71.92;96899.75;1819308;76;21225;-79
2021/03/21 02:18:01;;;;;;;36.83;18.30;;;;;;;-7.40;72.04;96895.55;1836228;76;21257;-78
2021/03/21 02:20:51;;;;;;;35.17;16.87;;;;;;;-7.42;72.22;96897.97;1834243;76;21067;-79
2021/03/21 02:23:35;;;;;;;27.55;14.03;;;;;;;-7.48;72.40;96898.09;1811733;76;21128;-79
2021/03/21 02:26:37;;;;;;;30.13;15.20;;;;;;;-7.48;72.42;96886.03;1826788;77;21073;-79
2021/03/21 02:29:26;;;;;;;30.90;15.07;;;;;;;-7.41;72.48;96886.70;1821612;78;21115;-79
2021/03/21 02:32:06;;;;;;;30.93;14.33;;;;;;;-7.33;72.51;96877.67;1821819;77;21529;-79
2021/03/21 02:34:44;;;;;;;31.00;15.87;;;;;;;-7.29;72.46;96868.69;1834337;76;21437;-79
2021/03/21 02:37:49;;;;;;;35.77;14.50;;;;;;;-7.30;72.37;96861.45;1831931;76;21241;-79
2021/03/21 02:40:37;;;;;;;33.90;15.20;;;;;;;-7.26;72.34;96855.00;1824659;77;21116;-78
2021/03/21 02:43:19;;;;;;;32.77;14.83;;;;;;;-7.24;72.28;96845.34;1825761;76;21456;-79
2021/03/21 02:45:51;;;;;;;30.57;13.17;;;;;;;-7.24;72.25;96849.69;1824269;76;21248;-79
2021/03/21 02:48:38;;;;;;;24.53;12.77;;;;;;;-7.26;72.21;96837.45;1848807;76;21128;-79
2021/03/21 02:51:10;;;;;;;31.83;15.93;;;;;;;-7.26;72.24;96840.84;1864407;76;21133;-78
2021/03/21 02:53:46;;;;;;;28.00;11.63;;;;;;;-7.32;72.29;96838.91;1834222;76;21097;-79
2021/03/21 02:56:20;;;;;;;27.60;11.27;;;;;;;-7.39;72.48;96823.77;1840437;76;21106;-79
2021/03/21 02:59:13;;;;;;;37.00;18.23;;;;;;;-7.50;72.80;96828.74;1818279;78;21279;-79
2021/03/21 03:02:01;;;;;;;34.50;16.33;;;;;;;-7.56;72.80;96826.82;1825329;76;21123;-79
2021/03/21 03:04:45;;;;;;;36.17;17.00;;;;;;;-7.56;72.78;96820.39;1829706;76;21492;-78
2021/03/21 03:07:36;;;;;;;31.67;14.60;;;;;;;-7.54;72.75;96820.23;1840676;76;21107;-79
2021/03/21 03:10:08;;;;;;;37.63;17.47;;;;;;;-7.56;72.69;96816.52;1833270;76;21443;-79
2021/03/21 03:12:41;;;;;;;25.47;14.60;;;;;;;-7.58;72.67;96808.16;1827032;78;21253;-79
2021/03/21 03:15:15;;;;;;;30.90;16.97;;;;;;;-7.59;72.67;96810.41;1834429;76;21066;-79
2021/03/21 03:17:47;;;;;;;31.73;15.67;;;;;;;-7.60;72.65;96797.22;1810751;76;21501;-79
2021/03/21 03:20:37;;;;;;;27.77;15.63;;;;;;;-7.62;72.64;96793.17;1766994;80;21451;-79
2021/03/21 03:23:29;;;;;;;29.20;13.18;;;;;;;-7.62;72.64;96788.03;1814091;78;21091;-79
2021/03/21 03:26:17;;;;;;;27.40;14.07;;;;;;;-7.63;72.60;96785.94;1827154;78;21102;-80
2021/03/21 03:29:04;;;;;;;26.03;13.47;;;;;;;-7.65;72.60;96778.86;1814938;76;21620;-79
2021/03/21 03:31:39;;;;;;;28.57;13.63;;;;;;;-7.66;72.54;96769.53;1810706;76;21104;-79
2021/03/21 03:34:06;;;;;;;32.27;14.07;;;;;;;-7.66;72.58;96760.52;1820235;77;21691;-79
2021/03/21 03:36:34;;;;;;;33.43;13.40;;;;;;;-7.65;72.58;96757.47;1827959;76;21106;-79
2021/03/21 03:39:04;;;;;;;31.93;14.37;;;;;;;-7.60;72.58;96757.78;1806451;78;21167;-79
2021/03/21 03:41:51;;;;;;;29.65;15.08;;;;;;;-7.58;72.49;96746.86;1810764;76;21158;-79
2021/03/21 03:44:48;;;;;;;28.07;14.00;;;;;;;-7.57;72.59;96742.84;1810362;78;21244;-79
2021/03/21 03:47:32;;;;;;;21.97;11.33;;;;;;;-7.62;72.74;96733.98;1826148;78;21075;-79
2021/03/21 03:50:11;;;;;;;30.73;13.33;;;;;;;-7.68;73.15;96729.00;1813861;76;21446;-79
2021/03/21 03:52:55;;;;;;;32.83;13.23;;;;;;;-7.70;73.12;96726.27;1812233;76;21299;-79
2021/03/21 03:55:46;;;;;;;18.83;11.67;;;;;;;-7.71;73.25;96724.67;1825056;76;21113;-79
2021/03/21 03:58:36;;;;;;;18.20;8.93;;;;;;;-7.70;73.28;96720.64;1789726;78;21095;-79
2021/03/21 04:01:09;;;;;;;25.77;13.88;;;;;;;-7.71;73.44;96714.38;1813541;76;21280;-79
2021/03/21 04:03:44;;;;;;;25.33;12.97;;;;;;;-7.71;73.38;96716.46;1772849;78;21077;-79
2021/03/21 04:06:28;;;;;;;27.17;12.93;;;;;;;-7.69;73.31;96695.22;1759290;79;21112;-79
2021/03/21 04:09:12;;;;;;;20.70;10.73;;;;;;;-7.67;73.30;96695.06;1758219;79;21591;-79
2021/03/21 04:12:06;;;;;;;28.20;12.13;;;;;;;-7.65;73.31;96690.55;1765511;79;21258;-79
2021/03/21 04:14:50;;;;;;;19.40;11.30;;;;;;;-7.65;73.18;96694.41;1764721;79;21088;-79
2021/03/21 04:17:47;;;;;;;13.43;7.40;;;;;;;-7.67;73.15;96692.48;1769031;79;21121;-79
2021/03/21 04:20:22;;;;;;;23.80;11.87;;;;;;;-7.69;73.20;96691.36;1764409;79;21485;-79
2021/03/21 04:22:57;;;;;;;25.13;13.30;;;;;;;-7.71;73.07;96689.92;1762434;79;21262;-79
2021/03/21 04:25:29;;;;;;;25.77;12.97;;;;;;;-7.74;73.04;96682.05;1754735;78;21112;-79
2021/03/21 04:28:20;;;;;;;19.93;9.97;;;;;;;-7.72;72.98;96680.59;1753409;79;21157;-79
2021/03/21 04:30:55;;;;;;;24.73;11.63;;;;;;;-7.72;72.96;96680.11;1760591;79;21509;-79
2021/03/21 04:33:27;;;;;;;24.20;11.47;;;;;;;-7.71;72.93;96673.20;1752002;79;21496;-79
2021/03/21 04:36:05;;;;;;;30.43;11.73;;;;;;;-7.68;72.79;96671.58;1750288;79;21077;-79
2021/03/21 04:38:40;;;;;;;23.50;10.30;;;;;;;-7.65;72.74;96664.81;1761502;79;21121;-79
2021/03/21 04:41:11;;;;;;;16.53;9.43;;;;;;;-7.64;72.66;96656.13;1757716;79;21255;-78
2021/03/21 04:43:50;;;;;;;21.90;12.10;;;;;;;-7.59;72.59;96655.17;1761892;79;21506;-79
2021/03/21 04:46:25;;;;;;;22.10;10.13;;;;;;;-7.56;72.35;96654.84;1754545;79;21153;-79
2021/03/21 04:48:55;;;;;;;25.73;12.03;;;;;;;-7.50;72.16;96651.59;1760782;78;21106;-79
2021/03/21 04:51:30;;;;;;;20.53;11.13;;;;;;;-7.50;72.16;96650.30;1793610;78;21119;-79
2021/03/21 04:54:11;;;;;;;26.33;13.40;;;;;;;-7.42;72.11;96658.02;1767099;78;21453;-79
2021/03/21 04:56:44;;;;;;;24.97;14.27;;;;;;;-7.19;71.91;96657.62;1764392;79;21155;-79
2021/03/21 04:59:28;;;;;;;23.77;11.50;;;;;;;-6.85;71.68;96651.39;1754040;79;21267;-79
2021/03/21 05:02:29;;;;;;;24.23;11.57;;;;;;;-6.47;71.35;96649.74;1770887;79;21112;-78
2021/03/21 05:05:17;;;;;;;22.37;9.97;;;;;;;-6.14;70.75;96642.58;1771585;79;21250;-79
2021/03/21 05:07:49;;;;;;;21.30;11.28;;;;;;;-5.74;69.81;96636.25;1774443;79;21239;-79
2021/03/21 05:13:43;;;;;;;24.12;14.78;;;;;;;-4.68;68.88;96622.63;1839762;77;28159;-77
2021/03/21 05:16:38;;;;;;;24.35;14.33;;;;;;;-4.16;67.95;96621.58;1810205;78;21686;-78
2021/03/21 05:19:16;;;;;;;26.27;13.30;;;;;;;-3.73;67.03;96617.16;1800511;78;21210;-79
2021/03/21 05:21:52;;;;;;;27.42;15.65;;;;;;;-3.32;66.10;96609.45;1825229;78;21498;-79
2021/03/21 05:24:57;;;;;;;25.75;13.60;;;;;;;-3.01;64.91;96607.22;1765241;80;21125;-79
2021/03/21 05:27:33;;;;;;;25.88;14.30;;;;;;;-2.74;64.02;96598.25;1751258;81;21134;-79
2021/03/21 05:30:15;;;;;;;27.58;15.72;;;;;;;-2.26;63.59;96600.25;1738845;81;21119;-79
2021/03/21 05:32:46;;;;;;;26.00;14.53;;;;;;;-1.80;62.72;96602.91;1750088;81;21119;-79
2021/03/21 05:35:18;;;;;;;30.23;15.30;;;;;;;-1.47;61.77;96605.17;1770026;80;21121;-79
2021/03/21 05:37:54;;;;;;;24.70;14.78;;;;;;;-1.08;60.67;96593.89;1774356;80;21145;-79
2021/03/21 05:41:00;;;;;;;25.90;16.42;;;;;;;-0.65;59.27;96587.62;1792175;80;21492;-79
2021/03/21 05:44:00;;;;;;;24.05;14.65;;;;;;;-0.57;57.59;96576.95;1763930;81;21106;-79
2021/03/21 05:46:53;;;;;;;26.40;15.78;;;;;;;-0.47;55.90;96579.91;1752441;81;21120;-79
2021/03/21 05:49:47;;;;;;;24.25;13.58;;;;;;;-0.30;56.15;96573.69;1760906;81;21503;-80
2021/03/21 05:52:50;;;;;;;22.62;13.25;;;;;;;0.32;56.06;96575.95;1767026;81;21125;-77
2021/03/21 05:55:55;;;;;;;17.62;10.58;;;;;;;0.84;54.76;96566.79;1731387;81;21139;-79
2021/03/21 05:58:33;;;;;;;24.92;15.03;;;;;;;1.10;50.92;96573.53;1744870;82;21277;-79
2021/03/21 06:01:21;;;;;;;26.80;15.23;;;;;;;0.91;50.40;96571.16;1748611;82;21725;-78
2021/03/21 06:04:20;;;;;;;22.87;15.00;;;;;;;1.24;51.21;96570.77;1736302;81;21488;-79
2021/03/21 06:07:32;;;;;;;23.27;14.23;;;;;;;1.67;49.44;96573.20;1736423;81;21139;-79
2021/03/21 06:10:44;;;;;;;22.52;13.80;;;;;;;2.49;50.24;96570.23;1737900;82;21123;-79
2021/03/21 06:14:01;;;;;;;22.05;13.20;;;;;;;3.22;47.83;96576.21;1765157;80;21139;-79
2021/03/21 06:17:11;;;;;;;21.52;12.33;;;;;;;3.24;45.04;96562.91;1794770;80;21115;-79
2021/03/21 06:20:09;;;;;;;22.07;13.83;;;;;;;2.89;44.36;96558.53;1795802;80;21186;-79
2021/03/21 06:23:01;;;;;;;19.77;12.63;;;;;;;3.37;45.58;96553.44;1791054;80;21161;-79
2021/03/21 06:25:58;;;;;;;19.20;11.60;;;;;;;3.22;42.19;96534.81;1781510;80;21265;-79
2021/03/21 06:28:53;;;;;;;16.62;11.93;;;;;;;3.17;42.97;96541.28;1777097;79;21593;-78
2021/03/21 06:31:35;;;;;;;17.27;11.08;;;;;;;3.34;40.60;96530.84;1790015;78;21141;-79
2021/03/21 06:34:41;;;;;;;18.27;11.30;;;;;;;2.59;40.76;96539.06;1769314;80;21236;-79
2021/03/21 06:37:33;;;;;;;18.65;11.65;;;;;;;2.77;43.02;96526.34;1792689;78;21487;-79
2021/03/21 06:40:15;;;;;;;16.17;11.12;;;;;;;3.46;40.74;96523.22;1787194;80;21100;-79
2021/03/21 06:42:59;;;;;;;16.23;9.83;;;;;;;4.08;41.31;96513.23;1788753;79;21105;-79
2021/03/21 06:45:41;;;;;;;17.05;10.65;;;;;;;4.22;37.50;96505.83;1792717;80;21139;-79
2021/03/21 06:48:57;;;;;;;14.50;8.10;;;;;;;3.55;38.22;96496.92;1783962;80;21497;-79
2021/03/21 06:51:36;;;;;;;13.22;8.25;;;;;;;3.84;37.84;96501.60;1820585;78;21531;-80
2021/03/21 06:54:31;;;;;;;13.48;7.35;;;;;;;3.73;37.15;96480.70;1828482;78;21466;-80
2021/03/21 06:57:40;;;;;;;13.83;8.30;;;;;;;3.71;37.40;96477.52;1810768;78;21103;-80
2021/03/21 07:00:21;;;;;;;13.68;8.28;;;;;;;4.13;38.41;96489.72;1788327;80;21127;-78
2021/03/21 07:03:17;;;;;;;12.55;7.62;;;;;;;4.67;36.67;96471.05;1767575;78;21285;-79
2021/03/21 07:06:38;;;;;;;13.20;7.25;;;;;;;5.25;37.68;96476.17;1789715;78;21168;-79
2021/03/21 07:09:39;;;;;;;12.15;7.03;;;;;;;5.33;36.58;96465.72;1790651;78;21115;-79
2021/03/21 07:12:15;;;;;;;9.48;6.20;;;;;;;5.11;35.02;96455.27;1778607;79;23842;-80
2021/03/21 07:15:06;;;;;;;11.43;7.50;;;;;;;4.59;35.53;96453.59;1806627;79;21097;-79
2021/03/21 07:17:56;;;;;;;11.90;7.60;;;;;;;4.65;35.97;96452.64;1799810;79;21107;-79
2021/03/21 07:21:09;;;;;;;9.55;6.60;;;;;;;5.09;36.38;96450.78;1771214;81;21154;-80
2021/03/21 07:24:00;;;;;;;11.97;6.47;;;;;;;5.77;34.73;96444.05;1736163;82;21153;-80
2021/03/21 07:27:26;;;;;;;10.55;6.40;;;;;;;5.76;33.77;96426.66;1745179;82;21108;-80
2021/03/21 07:30:08;;;;;;;12.03;6.67;;;;;;;5.87;34.57;96428.84;1710884;83;21124;-79
2021/03/21 07:32:58;;;;;;;10.40;5.83;;;;;;;6.08;34.67;96431.93;1706282;83;21233;-80
2021/03/21 07:36:06;;;;;;;9.60;4.90;;;;;;;6.35;32.87;96408.13;1735006;82;21148;-79
2021/03/21 07:39:14;;;;;;;10.45;7.20;;;;;;;6.66;31.71;96380.61;1739977;81;21153;-79
2021/03/21 07:41:52;;;;;;;12.90;6.67;;;;;;;6.13;33.03;96411.42;1736500;82;21142;-79
2021/03/21 07:44:50;;;;;;;12.18;6.75;;;;;;;5.24;34.77;96401.00;1734281;82;21101;-80
2021/03/21 07:47:44;;;;;;;9.90;6.20;;;;;;;3.97;34.59;96404.77;1735817;82;21087;-80
2021/03/21 07:50:26;;;;;;;8.35;4.37;;;;;;;2.27;36.58;96410.97;1732025;82;21177;-79
2021/03/21 07:53:30;;;;;;;10.90;6.40;;;;;;;1.06;38.79;96400.09;1746794;81;21123;-80
2021/03/21 07:56:25;;;;;;;8.23;4.42;;;;;;;0.53;40.48;96398.69;1763529;81;21460;-80
2021/03/21 07:59:00;;;;;;;10.03;4.80;;;;;;;0.30;41.87;96373.31;1739730;81;21135;-79
2021/03/21 08:01:29;;;;;;;7.25;4.40;;;;;;;0.60;42.85;96352.47;1743916;81;21135;-80
2021/03/21 08:04:16;;;;;;;6.53;3.42;;;;;;;0.94;42.66;96373.16;1730170;81;21132;-80
2021/03/21 08:06:48;;;;;;;7.83;4.00;;;;;;;1.11;41.97;96359.75;1730736;82;21137;-79
2021/03/21 08:09:38;;;;;;;6.78;3.72;;;;;;;1.62;42.50;96368.78;1732215;81;21526;-80
2021/03/21 08:12:21;;;;;;;7.67;3.45;;;;;;;1.65;40.53;96378.77;1734625;81;21112;-80
2021/03/21 08:15:18;;;;;;;4.95;2.42;;;;;;;1.84;42.07;96366.41;1776966;81;21110;-80
2021/03/21 08:18:06;;;;;;;3.25;1.92;;;;;;;1.73;40.21;96375.83;1747740;81;21526;-79
2021/03/21 08:20:39;;;;;;;6.40;3.40;;;;;;;1.18;41.33;96356.53;1746211;81;21091;-80
2021/03/21 08:23:31;;;;;;;5.78;2.60;;;;;;;1.08;42.46;96362.81;1757479;81;21555;-80
2021/03/21 08:26:04;;;;;;;4.03;2.20;;;;;;;1.01;41.92;96352.99;1765299;81;21472;-80
2021/03/21 08:28:38;;;;;;;8.20;3.67;;;;;;;0.90;43.20;96353.75;1744990;82;21126;-80
2021/03/21 08:31:14;;;;;;;10.32;3.05;;;;;;;0.62;42.09;96346.52;1748725;81;21175;-80
2021/03/21 08:33:44;;;;;;;4.53;2.20;;;;;;;0.47;42.90;96327.87;1777940;80;21112;-80
2021/03/21 08:36:25;;;;;;;4.10;2.55;;;;;;;0.09;43.44;96345.08;1778482;80;21598;-80
2021/03/21 08:38:55;;;;;;;;;;;;;;;-0.16;44.29;96335.52;1757918;80;21121;-80
2021/03/21 08:41:26;;;;;;;5.58;2.52;;;;;;;0.01;45.82;96334.96;1769138;81;20112;-80
2021/03/21 08:44:04;;;;;;;6.72;3.12;;;;;;;-0.10;44.07;96339.88;1758309;80;21127;-80
2021/03/21 08:46:34;;;;;;;5.10;3.10;;;;;;;-0.22;44.80;96327.78;1759567;80;21107;-80
2021/03/21 08:49:20;;;;;;;4.90;2.35;;;;;;;-0.26;45.26;96321.42;1761712;80;21111;-80
2021/03/21 08:51:48;;;;;;;7.08;2.95;;;;;;;-0.37;45.33;96326.84;1709298;82;21507;-80
2021/03/21 08:54:26;;;;;;;6.53;2.98;;;;;;;-0.50;45.92;96334.27;1759289;80;21596;-80
2021/03/21 08:57:16;;;;;;;5.97;2.83;;;;;;;-0.45;45.66;96331.81;1769026;80;21118;-80
2021/03/21 08:59:46;;;;;;;8.33;3.35;;;;;;;-0.37;46.26;96326.33;1754091;82;21450;-80
2021/03/21 09:02:20;;;;;;;5.13;2.87;;;;;;;-0.45;46.78;96321.90;1752716;82;21156;-80
2021/03/21 09:05:05;;;;;;;4.92;2.77;;;;;;;-0.29;46.28;96293.98;1753064;82;21456;-80
2021/03/21 09:07:38;;;;;;;4.12;2.10;;;;;;;-0.29;46.28;96293.98;1754768;80;21107;-80
2021/03/21 09:10:26;;;;;;;6.55;3.58;;;;;;;-0.36;47.32;96314.90;1765025;80;21458;-80
2021/03/21 09:13:19;;;;;;;3.02;2.35;;;;;;;-0.36;47.32;96314.90;1763819;80;21080;-80
2021/03/21 09:15:57;;;;;;;6.87;3.45;;;;;;;-0.38;46.68;96290.89;1778557;80;21080;-80
2021/03/21 09:18:38;;;;;;;4.72;2.77;;;;;;;-0.42;48.01;96300.16;1782021;80;21139;-79
2021/03/21 09:21:24;;;;;;;6.10;3.00;;;;;;;-0.41;47.14;96297.04;1780211;80;21130;-80
2021/03/21 09:24:08;;;;;;;2.75;2.05;;;;;;;-0.48;46.53;96305.41;1771460;80;21095;-80
2021/03/21 09:26:43;;;;;;;7.62;2.47;;;;;;;-0.55;47.48;96292.98;1773783;80;21141;-79
2021/03/21 09:29:30;;;;;;;4.55;2.15;;;;;;;-0.61;46.94;96301.92;1764105;80;21564;-79
2021/03/21 09:32:03;;;;;;;4.25;2.55;;;;;;;-0.62;47.65;96293.83;1778029;80;21534;-79
2021/03/21 09:34:59;;;;;;;6.65;3.90;;;;;;;-0.53;49.53;96302.67;1783788;80;21105;-79
2021/03/21 09:37:32;;;;;;;4.53;3.10;;;;;;;-0.30;48.44;96290.58;1769420;80;21475;-79
2021/03/21 09:40:13;;;;;;;8.70;3.40;;;;;;;-0.26;48.12;96279.25;1777996;80;21128;-79
2021/03/21 09:42:41;;;;;;;9.13;4.20;;;;;;;-0.23;48.41;96291.03;1731159;82;21161;-80
2021/03/21 09:45:10;;;;;;;3.47;2.35;;;;;;;-0.11;48.32;96286.18;1738346;81;21483;-79
2021/03/21 09:48:01;;;;;;;6.72;3.17;;;;;;;-0.06;48.37;96293.33;1742540;82;21178;-79
2021/03/21 09:51:01;;;;;;;7.10;2.65;;;;;;;-0.14;47.09;96282.72;1734447;81;21160;-80
2021/03/21 09:54:03;;;;;;;5.17;1.77;;;;;;;-0.13;47.75;96278.30;1734110;81;21174;-79
2021/03/21 09:56:44;;;;;;;7.65;3.45;;;;;;;-0.14;48.37;96278.81;1731919;81;21142;-79
2021/03/21 09:59:45;;;;;;;6.22;3.55;;;;;;;0.09;48.93;96274.70;1730609;82;21160;-79
2021/03/21 10:02:43;;;;;;;6.35;3.70;;;;;;;0.11;48.36;96294.83;1743142;81;21180;-80
2021/03/21 10:05:24;;;;;;;5.47;2.55;;;;;;;0.11;48.36;96294.83;1741939;81;21120;-79
2021/03/21 10:08:08;;;;;;;5.42;3.47;;;;;;;0.10;49.00;96256.75;1743535;81;21157;-79
2021/03/21 10:10:43;;;;;;;6.33;3.60;;;;;;;0.18;48.49;96290.34;1743327;82;21200;-79
2021/03/21 10:13:12;;;;;;;5.08;3.05;;;;;;;0.26;48.56;96276.98;1732241;81;21127;-79
2021/03/21 10:16:22;;;;;;;4.03;2.10;;;;;;;0.40;49.20;96269.78;1721770;81;21575;-79
2021/03/21 10:19:06;;;;;;;4.60;2.30;;;;;;;0.61;49.71;96268.49;1755194;81;21274;-79
2021/03/21 10:21:41;;;;;;;4.05;2.00;;;;;;;0.41;47.23;96256.52;1739174;81;21119;-79
2021/03/21 10:24:17;;;;;;;4.28;2.33;;;;;;;0.41;48.94;96260.42;1743602;81;21257;-79
2021/03/21 10:27:20;;;;;;;3.33;1.98;;;;;;;0.43;50.05;96264.14;1734796;81;21613;-80
2021/03/21 10:30:05;;;;;;;3.08;1.85;;;;;;;0.51;48.58;96248.95;1756827;81;21151;-79
2021/03/21 10:32:37;;;;;;;4.42;1.90;;;;;;;0.42;49.64;96263.32;1749108;81;21124;-78
2021/03/21 10:35:16;;;;;;;7.45;3.52;;;;;;;0.49;49.38;96251.00;1753332;81;21309;-78
2021/03/21 10:37:50;;;;;;;3.33;2.08;;;;;;;0.58;49.21;96268.44;1727454;81;21118;-78
2021/03/21 10:40:35;;;;;;;6.12;3.22;;;;;;;0.71;49.12;96255.20;1746063;81;21147;-79
2021/03/21 10:43:22;;;;;;;8.05;3.77;;;;;;;0.74;49.00;96245.61;1752501;81;21654;-79
2021/03/21 10:45:54;;;;;;;8.28;3.50;;;;;;;0.91;49.83;96248.34;1744946;81;21088;-79
2021/03/21 10:48:33;;;;;;;4.67;2.42;;;;;;;1.20;49.72;96253.18;1746382;81;21108;-79
2021/03/21 10:51:12;;;;;;;3.83;2.45;;;;;;;1.25;48.46;96244.66;1763888;81;21309;-79
2021/03/21 10:53:54;;;;;;;6.42;3.37;;;;;;;0.98;48.74;96230.75;1742830;81;22333;-79
2021/03/21 10:56:26;;;;;;;5.42;2.98;;;;;;;0.93;49.60;96250.22;1749497;81;21475;-79
2021/03/21 10:59:12;;;;;;;;;;;;;;;0.93;49.05;96224.12;1737633;81;21087;-79
2021/03/21 11:01:43;;;;;;;7.03;2.50;;;;;;;0.77;49.66;96230.01;1750831;81;20272;-79
2021/03/21 11:04:32;;;;;;;5.15;1.98;;;;;;;0.63;50.94;96239.86;1755764;81;21241;-79
2021/03/21 11:07:14;;;;;;;2.92;2.25;;;;;;;0.66;51.14;96243.31;1758162;81;21257;-79
2021/03/21 11:09:59;;;;;;;8.38;4.00;;;;;;;0.75;50.96;96239.38;1765714;81;21249;-79
2021/03/21 11:12:42;;;;;;;3.45;1.47;;;;;;;0.86;51.61;96246.94;1748956;81;21306;-79
2021/03/21 11:18:31;;;;;;;7.72;3.15;;;;;;;1.12;51.84;96229.50;1886932;75;22961;-78
2021/03/21 11:21:19;;;;;;;7.03;3.42;;;;;;;1.08;51.22;96222.36;1833169;77;21103;-79
2021/03/21 11:24:07;;;;;;;6.37;3.77;;;;;;;1.31;52.02;96215.83;1828478;77;21129;-79
2021/03/21 11:26:38;;;;;;;5.20;3.15;;;;;;;1.34;51.14;96214.57;1844674;76;21626;-80
2021/03/21 11:29:11;;;;;;;5.30;1.98;;;;;;;1.32;51.23;96215.31;1847132;77;21084;-80
2021/03/21 11:31:49;;;;;;;6.05;2.92;;;;;;;1.11;51.03;96207.03;1860016;76;21127;-79
2021/03/21 11:34:33;;;;;;;9.00;3.33;;;;;;;0.69;52.27;96212.06;1840377;77;21233;-79
2021/03/21 11:37:08;;;;;;;6.20;3.65;;;;;;;0.71;52.56;96207.45;1836980;77;21257;-79
2021/03/21 11:39:59;;;;;;;5.30;2.67;;;;;;;0.79;52.61;96208.40;1837000;77;21650;-79
2021/03/21 11:42:39;;;;;;;6.60;3.72;;;;;;;0.75;52.13;96205.45;1836693;77;21386;-79
2021/03/21 11:45:18;;;;;;;4.95;2.85;;;;;;;0.66;52.54;96203.39;1830948;77;21480;-79
2021/03/21 11:47:53;;;;;;;3.55;2.58;;;;;;;0.63;52.66;96215.08;1828971;77;21064;-79
2021/03/21 11:50:33;;;;;;;7.33;3.58;;;;;;;0.52;53.01;96199.69;1829428;77;21265;-79
2021/03/21 11:53:03;;;;;;;7.45;3.22;;;;;;;0.42;54.20;96202.05;1839572;77;21096;-79
2021/03/21 11:55:36;;;;;;;7.12;3.10;;;;;;;0.36;54.14;96213.89;1846603;76;21132;-79
2021/03/21 11:58:24;;;;;;;9.18;3.60;;;;;;;0.18;55.46;96210.33;1825950;77;21153;-79
2021/03/21 12:01:12;;;;;;;2.72;2.10;;;;;;;0.15;56.37;96224.33;1851989;76;21144;-80
2021/03/21 12:03:50;;;;;;;5.53;3.30;;;;;;;0.01;57.78;96202.06;1830902;77;22334;-79
2021/03/21 12:06:42;;;;;;;5.80;2.47;;;;;;;-0.24;59.10;96196.47;1832038;76;21080;-80
2021/03/21 12:09:37;;;;;;;6.08;2.92;;;;;;;-0.30;60.79;96179.09;1837984;77;21183;-80
2021/03/21 12:14:52;;;;;;;7.60;3.95;;;;;;;-0.32;62.94;96188.44;1870019;76;23055;-78
2021/03/21 12:17:28;;;;;;;7.08;3.60;;;;;;;-0.26;62.74;96189.38;1817862;77;21121;-78
2021/03/21 12:19:59;;;;;;;4.60;2.05;;;;;;;-0.12;62.49;96192.11;1811541;77;21091;-79
2021/03/21 12:22:39;;;;;;;5.53;2.35;;;;;;;-0.08;64.69;96171.61;1803319;77;21091;-79
2021/03/21 12:25:29;;;;;;;8.78;3.72;;;;;;;-0.08;64.69;96171.61;1839742;77;21120;-79
2021/03/21 12:28:19;;;;;;;6.45;3.98;;;;;;;-0.04;65.11;96172.23;1848604;77;21467;-79
2021/03/21 12:31:15;;;;;;;5.97;2.83;;;;;;;0.11;65.08;96164.01;1788768;78;21536;-79
2021/03/21 12:33:42;;;;;;;7.15;3.15;;;;;;;0.16;65.24;96170.67;1671252;84;21142;-79
2021/03/21 12:36:15;;;;;;;7.08;4.15;;;;;;;0.22;65.23;96165.06;1763206;80;21143;-79
2021/03/21 12:38:55;;;;;;;9.75;4.42;;;;;;;0.21;65.21;96160.87;1775909;79;21135;-79
2021/03/21 12:41:33;;;;;;;7.12;4.08;;;;;;;0.11;65.52;96167.13;1810441;78;21142;-79
2021/03/21 12:44:32;;;;;;;7.65;3.33;;;;;;;0.03;65.71;96170.86;1778655;80;21225;-79
2021/03/21 12:47:26;;;;;;;5.97;2.92;;;;;;;-0.04;66.24;96162.32;1788665;80;21096;-79
2021/03/21 12:49:53;;;;;;;5.70;2.77;;;;;;;-0.14;66.86;96157.66;1779165;80;21144;-80